sensor_id;sensor_type;location;lat;lon;timestamp;pressure;altitude;pressure_sealevel;temperature;humidity
52855;BME280;38719;51.418;7.286;2023-01-27T00:00:54;100471.44;;;4.98;73.11
52855;BME280;38719;51.418;7.286;2023-01-27T00:03:22;100471.41;;;5.03;73.48
52855;BME280;38719;51.418;7.286;2023-01-27T00:05:49;100466.03;;;5.07;72.65
52855;BME280;38719;51.418;7.286;2023-01-27T00:08:17;100458.41;;;4.86;72.22
52855;BME280;38719;51.418;7.286;2023-01-27T00:10:45;100462.84;;;4.83;72.73
52855;BME280;38719;51.418;7.286;2023-01-27T00:13:34;100459.38;;;4.78;72.94
52855;BME280;38719;51.418;7.286;2023-01-27T00:16:00;100470.94;;;4.70;73.26
52855;BME280;38719;51.418;7.286;2023-01-27T00:18:28;100476.19;;;4.71;72.88
52855;BME280;38719;51.418;7.286;2023-01-27T00:20:55;100464.88;;;4.63;72.86
52855;BME280;38719;51.418;7.286;2023-01-27T00:23:41;100470.88;;;4.74;72.24
52855;BME280;38719;51.418;7.286;2023-01-27T00:26:26;100475.59;;;4.50;72.99
52855;BME280;38719;51.418;7.286;2023-01-27T00:28:55;100481.72;;;4.48;73.12
52855;BME280;38719;51.418;7.286;2023-01-27T00:31:22;100487.91;;;4.45;73.45
52855;BME280;38719;51.418;7.286;2023-01-27T00:34:08;100476.31;;;4.62;73.17
52855;BME280;38719;51.418;7.286;2023-01-27T00:36:36;100472.66;;;4.72;72.76
52855;BME280;38719;51.418;7.286;2023-01-27T00:39:04;100478.06;;;4.61;73.08
52855;BME280;38719;51.418;7.286;2023-01-27T00:41:32;100485.06;;;4.65;72.55
52855;BME280;38719;51.418;7.286;2023-01-27T00:44:02;100474.56;;;4.61;72.39
52855;BME280;38719;51.418;7.286;2023-01-27T00:46:31;100489.38;;;4.71;73.06
52855;BME280;38719;51.418;7.286;2023-01-27T00:48:59;100478.13;;;4.58;73.05
52855;BME280;38719;51.418;7.286;2023-01-27T00:51:26;100479.69;;;4.73;72.92
52855;BME280;38719;51.418;7.286;2023-01-27T00:53:54;100480.50;;;4.78;72.88
52855;BME280;38719;51.418;7.286;2023-01-27T00:56:21;100483.94;;;4.83;72.96
52855;BME280;38719;51.418;7.286;2023-01-27T00:58:49;100483.94;;;4.87;72.92
52855;BME280;38719;51.418;7.286;2023-01-27T01:01:17;100477.69;;;4.91;72.15
52855;BME280;38719;51.418;7.286;2023-01-27T01:03:45;100479.59;;;4.81;72.16
52855;BME280;38719;51.418;7.286;2023-01-27T01:06:15;100481.31;;;4.83;72.69
52855;BME280;38719;51.418;7.286;2023-01-27T01:08:43;100486.56;;;4.85;72.66
52855;BME280;38719;51.418;7.286;2023-01-27T01:11:12;100487.44;;;4.86;72.61
52855;BME280;38719;51.418;7.286;2023-01-27T01:13:40;100498.03;;;4.82;73.05
52855;BME280;38719;51.418;7.286;2023-01-27T01:16:10;100492.69;;;4.87;72.63
52855;BME280;38719;51.418;7.286;2023-01-27T01:18:40;100498.09;;;4.76;73.26
52855;BME280;38719;51.418;7.286;2023-01-27T01:21:08;100499.84;;;4.77;73.17
52855;BME280;38719;51.418;7.286;2023-01-27T01:23:38;100498.94;;;4.80;73.12
52855;BME280;38719;51.418;7.286;2023-01-27T01:26:08;100509.56;;;4.74;73.29
52855;BME280;38719;51.418;7.286;2023-01-27T01:28:36;100510.69;;;4.56;73.96
52855;BME280;38719;51.418;7.286;2023-01-27T01:31:05;100511.72;;;4.39;74.78
52855;BME280;38719;51.418;7.286;2023-01-27T01:33:33;100518.91;;;4.23;74.97
52855;BME280;38719;51.418;7.286;2023-01-27T01:36:07;100520.81;;;4.10;76.04
52855;BME280;38719;51.418;7.286;2023-01-27T01:38:35;100517.28;;;4.11;75.44
52855;BME280;38719;51.418;7.286;2023-01-27T01:41:03;100517.22;;;4.19;75.54
52855;BME280;38719;51.418;7.286;2023-01-27T01:43:30;100520.63;;;4.29;74.71
52855;BME280;38719;51.418;7.286;2023-01-27T01:45:59;100518.97;;;4.17;75.14
52855;BME280;38719;51.418;7.286;2023-01-27T01:48:33;100523.41;;;4.15;75.47
52855;BME280;38719;51.418;7.286;2023-01-27T01:51:07;100524.25;;;4.18;75.14
52855;BME280;38719;51.418;7.286;2023-01-27T01:53:38;100515.25;;;4.40;75.17
52855;BME280;38719;51.418;7.286;2023-01-27T01:56:11;100526.66;;;4.43;74.66
52855;BME280;38719;51.418;7.286;2023-01-27T01:58:41;100520.41;;;4.50;74.12
52855;BME280;38719;51.418;7.286;2023-01-27T02:01:14;100532.81;;;4.42;73.99
52855;BME280;38719;51.418;7.286;2023-01-27T02:03:46;100521.56;;;4.25;74.94
52855;BME280;38719;51.418;7.286;2023-01-27T02:06:18;100526.91;;;4.18;75.20
52855;BME280;38719;51.418;7.286;2023-01-27T02:08:48;100523.38;;;4.19;75.01
52855;BME280;38719;51.418;7.286;2023-01-27T02:11:16;100526.81;;;4.26;74.89
52855;BME280;38719;51.418;7.286;2023-01-27T02:13:44;100542.72;;;4.15;75.16
52855;BME280;38719;51.418;7.286;2023-01-27T02:16:12;100522.50;;;4.17;74.77
52855;BME280;38719;51.418;7.286;2023-01-27T02:18:40;100530.44;;;4.13;74.88
52855;BME280;38719;51.418;7.286;2023-01-27T02:21:09;100526.19;;;3.95;75.98
52855;BME280;38719;51.418;7.286;2023-01-27T02:23:52;100532.22;;;4.12;75.31
52855;BME280;38719;51.418;7.286;2023-01-27T02:26:25;100518.03;;;4.26;74.85
52855;BME280;38719;51.418;7.286;2023-01-27T02:28:56;100527.66;;;4.27;74.53
52855;BME280;38719;51.418;7.286;2023-01-27T02:31:24;100524.19;;;4.25;74.41
52855;BME280;38719;51.418;7.286;2023-01-27T02:33:56;100520.69;;;4.26;74.15
52855;BME280;38719;51.418;7.286;2023-01-27T02:36:26;100523.41;;;4.12;74.31
52855;BME280;38719;51.418;7.286;2023-01-27T02:38:55;100511.00;;;4.25;74.89
52855;BME280;38719;51.418;7.286;2023-01-27T02:41:28;100518.91;;;4.23;74.30
52855;BME280;38719;51.418;7.286;2023-01-27T02:43:57;100517.19;;;4.20;74.61
52855;BME280;38719;51.418;7.286;2023-01-27T02:46:25;100514.47;;;4.30;74.74
52855;BME280;38719;51.418;7.286;2023-01-27T02:48:53;100509.25;;;4.24;75.02
52855;BME280;38719;51.418;7.286;2023-01-27T02:51:21;100517.09;;;4.30;75.14
52855;BME280;38719;51.418;7.286;2023-01-27T02:53:48;100509.19;;;4.30;74.74
52855;BME280;38719;51.418;7.286;2023-01-27T02:56:16;100513.63;;;4.23;74.89
52855;BME280;38719;51.418;7.286;2023-01-27T02:58:45;100510.94;;;4.29;74.65
52855;BME280;38719;51.418;7.286;2023-01-27T03:01:12;100512.69;;;4.30;74.50
52855;BME280;38719;51.418;7.286;2023-01-27T03:03:40;100516.16;;;4.37;74.34
52855;BME280;38719;51.418;7.286;2023-01-27T03:06:09;100515.34;;;4.29;74.65
52855;BME280;38719;51.418;7.286;2023-01-27T03:08:37;100505.66;;;4.32;74.49
52855;BME280;38719;51.418;7.286;2023-01-27T03:11:05;100510.38;;;4.01;75.43
52855;BME280;38719;51.418;7.286;2023-01-27T03:13:33;100509.53;;;3.94;75.96
52855;BME280;38719;51.418;7.286;2023-01-27T03:16:04;100514.66;;;4.08;75.29
52855;BME280;38719;51.418;7.286;2023-01-27T03:18:50;100512.09;;;4.00;75.33
52855;BME280;38719;51.418;7.286;2023-01-27T03:21:19;100504.25;;;3.96;75.97
52855;BME280;38719;51.418;7.286;2023-01-27T03:23:46;100501.44;;;4.16;75.55
52855;BME280;38719;51.418;7.286;2023-01-27T03:26:14;100503.94;;;4.30;74.69
52855;BME280;38719;51.418;7.286;2023-01-27T03:28:42;100503.16;;;4.18;74.70
52855;BME280;38719;51.418;7.286;2023-01-27T03:31:31;100507.56;;;4.16;75.32
52855;BME280;38719;51.418;7.286;2023-01-27T03:33:58;100523.44;;;4.10;75.44
52855;BME280;38719;51.418;7.286;2023-01-27T03:36:26;100520.66;;;4.24;74.67
52855;BME280;38719;51.418;7.286;2023-01-27T03:39:11;100518.13;;;4.16;74.21
52855;BME280;38719;51.418;7.286;2023-01-27T03:41:56;100511.97;;;4.17;75.14
52855;BME280;38719;51.418;7.286;2023-01-27T03:44:42;100514.72;;;4.05;75.35
52855;BME280;38719;51.418;7.286;2023-01-27T03:47:28;100513.72;;;4.18;75.03
52855;BME280;38719;51.418;7.286;2023-01-27T03:49:56;100517.13;;;4.28;74.63
52855;BME280;38719;51.418;7.286;2023-01-27T03:52:23;100513.53;;;4.34;74.67
52855;BME280;38719;51.418;7.286;2023-01-27T03:54:51;100524.06;;;4.37;75.21
52855;BME280;38719;51.418;7.286;2023-01-27T03:57:18;100518.91;;;4.26;75.21
52855;BME280;38719;51.418;7.286;2023-01-27T03:59:46;100524.09;;;4.34;74.85
52855;BME280;38719;51.418;7.286;2023-01-27T04:02:13;100514.44;;;4.34;75.01
52855;BME280;38719;51.418;7.286;2023-01-27T04:05:00;100518.00;;;4.29;75.22
52855;BME280;38719;51.418;7.286;2023-01-27T04:07:45;100515.19;;;4.46;75.19
52855;BME280;38719;51.418;7.286;2023-01-27T04:10:13;100516.13;;;4.40;74.69
52855;BME280;38719;51.418;7.286;2023-01-27T04:12:40;100521.38;;;4.42;74.74
52855;BME280;38719;51.418;7.286;2023-01-27T04:15:08;100522.22;;;4.44;74.34
52855;BME280;38719;51.418;7.286;2023-01-27T04:17:36;100522.22;;;4.47;75.13
52855;BME280;38719;51.418;7.286;2023-01-27T04:20:06;100524.84;;;4.45;74.90
52855;BME280;38719;51.418;7.286;2023-01-27T04:22:33;100519.56;;;4.47;74.56
52855;BME280;38719;51.418;7.286;2023-01-27T04:25:01;100516.03;;;4.49;74.81
52855;BME280;38719;51.418;7.286;2023-01-27T04:27:28;100525.63;;;4.57;75.46
52855;BME280;38719;51.418;7.286;2023-01-27T04:29:56;100529.25;;;4.45;74.99
52855;BME280;38719;51.418;7.286;2023-01-27T04:32:23;100527.38;;;4.56;74.57
52855;BME280;38719;51.418;7.286;2023-01-27T04:34:52;100528.22;;;4.60;74.49
52855;BME280;38719;51.418;7.286;2023-01-27T04:37:21;100524.72;;;4.56;74.51
52855;BME280;38719;51.418;7.286;2023-01-27T04:39:49;100531.84;;;4.49;75.08
52855;BME280;38719;51.418;7.286;2023-01-27T04:42:16;100532.81;;;4.41;75.65
52855;BME280;38719;51.418;7.286;2023-01-27T04:44:44;100535.38;;;4.48;74.74
52855;BME280;38719;51.418;7.286;2023-01-27T04:47:11;100534.56;;;4.40;75.83
52855;BME280;38719;51.418;7.286;2023-01-27T04:49:39;100538.06;;;4.44;75.39
52855;BME280;38719;51.418;7.286;2023-01-27T04:52:06;100535.41;;;4.47;75.74
52855;BME280;38719;51.418;7.286;2023-01-27T04:54:35;100534.47;;;4.48;75.67
52855;BME280;38719;51.418;7.286;2023-01-27T04:57:03;100528.34;;;4.47;75.38
52855;BME280;38719;51.418;7.286;2023-01-27T04:59:30;100529.22;;;4.46;76.40
52855;BME280;38719;51.418;7.286;2023-01-27T05:01:58;100546.06;;;4.33;76.07
52855;BME280;38719;51.418;7.286;2023-01-27T05:04:26;100546.06;;;4.36;76.29
52855;BME280;38719;51.418;7.286;2023-01-27T05:06:53;100552.13;;;4.43;75.93
52855;BME280;38719;51.418;7.286;2023-01-27T05:09:21;100552.94;;;4.49;75.91
52855;BME280;38719;51.418;7.286;2023-01-27T05:11:50;100552.06;;;4.50;76.11
52855;BME280;38719;51.418;7.286;2023-01-27T05:14:18;100556.44;;;4.50;75.88
52855;BME280;38719;51.418;7.286;2023-01-27T05:16:48;100556.53;;;4.42;75.58
52855;BME280;38719;51.418;7.286;2023-01-27T05:19:16;100554.69;;;4.49;76.45
52855;BME280;38719;51.418;7.286;2023-01-27T05:21:43;100549.44;;;4.49;76.00
52855;BME280;38719;51.418;7.286;2023-01-27T05:24:11;100540.66;;;4.48;76.25
52855;BME280;38719;51.418;7.286;2023-01-27T05:26:38;100552.13;;;4.46;76.24
52855;BME280;38719;51.418;7.286;2023-01-27T05:29:08;100552.94;;;4.48;76.57
52855;BME280;38719;51.418;7.286;2023-01-27T05:31:36;100553.78;;;4.51;75.68
52855;BME280;38719;51.418;7.286;2023-01-27T05:34:04;100560.16;;;4.32;76.37
52855;BME280;38719;51.418;7.286;2023-01-27T05:36:31;100561.88;;;4.36;76.96
52855;BME280;38719;51.418;7.286;2023-01-27T05:38:59;100564.38;;;4.48;76.34
52855;BME280;38719;51.418;7.286;2023-01-27T05:41:28;100564.50;;;4.38;76.36
52855;BME280;38719;51.418;7.286;2023-01-27T05:43:57;100563.50;;;4.48;76.43
52855;BME280;38719;51.418;7.286;2023-01-27T05:46:27;100559.13;;;4.48;76.32
52855;BME280;38719;51.418;7.286;2023-01-27T05:48:59;100566.94;;;4.56;76.02
52855;BME280;38719;51.418;7.286;2023-01-27T05:51:28;100568.66;;;4.62;76.28
52855;BME280;38719;51.418;7.286;2023-01-27T05:53:56;100569.63;;;4.51;76.40
52855;BME280;38719;51.418;7.286;2023-01-27T05:56:24;100576.78;;;4.39;76.99
52855;BME280;38719;51.418;7.286;2023-01-27T05:58:52;100564.38;;;4.50;76.55
52855;BME280;38719;51.418;7.286;2023-01-27T06:01:21;100578.31;;;4.63;76.27
52855;BME280;38719;51.418;7.286;2023-01-27T06:03:50;100577.34;;;4.68;75.52
52855;BME280;38719;51.418;7.286;2023-01-27T06:06:22;100573.81;;;4.71;75.36
52855;BME280;38719;51.418;7.286;2023-01-27T06:08:50;100575.50;;;4.78;74.95
52855;BME280;38719;51.418;7.286;2023-01-27T06:11:18;100572.78;;;4.88;75.31
52855;BME280;38719;51.418;7.286;2023-01-27T06:13:46;100574.50;;;4.90;75.33
52855;BME280;38719;51.418;7.286;2023-01-27T06:16:16;100570.19;;;4.83;75.34
52855;BME280;38719;51.418;7.286;2023-01-27T06:18:44;100572.78;;;4.84;75.01
52855;BME280;38719;51.418;7.286;2023-01-27T06:21:14;100575.34;;;4.94;74.96
52855;BME280;38719;51.418;7.286;2023-01-27T06:23:42;100571.78;;;4.95;74.63
52855;BME280;38719;51.418;7.286;2023-01-27T06:26:12;100572.69;;;4.92;75.03
52855;BME280;38719;51.418;7.286;2023-01-27T06:28:41;100580.59;;;4.92;74.89
52855;BME280;38719;51.418;7.286;2023-01-27T06:31:10;100577.06;;;4.96;74.56
52855;BME280;38719;51.418;7.286;2023-01-27T06:33:38;100580.63;;;4.91;74.34
52855;BME280;38719;51.418;7.286;2023-01-27T06:36:08;100581.56;;;4.87;74.31
52855;BME280;38719;51.418;7.286;2023-01-27T06:38:38;100592.00;;;4.99;74.95
52855;BME280;38719;51.418;7.286;2023-01-27T06:41:06;100592.03;;;4.94;74.42
52855;BME280;38719;51.418;7.286;2023-01-27T06:43:34;100595.63;;;4.90;74.60
52855;BME280;38719;51.418;7.286;2023-01-27T06:46:04;100602.84;;;4.71;75.46
52855;BME280;38719;51.418;7.286;2023-01-27T06:48:33;100595.84;;;4.67;75.17
52855;BME280;38719;51.418;7.286;2023-01-27T06:51:00;100602.91;;;4.65;75.42
52855;BME280;38719;51.418;7.286;2023-01-27T06:53:28;100609.84;;;4.75;75.52
52855;BME280;38719;51.418;7.286;2023-01-27T06:55:59;100605.38;;;4.79;75.44
52855;BME280;38719;51.418;7.286;2023-01-27T06:58:27;100611.47;;;4.87;75.57
52855;BME280;38719;51.418;7.286;2023-01-27T07:00:55;100616.88;;;4.78;75.30
52855;BME280;38719;51.418;7.286;2023-01-27T07:03:23;100624.00;;;4.68;75.88
52855;BME280;38719;51.418;7.286;2023-01-27T07:05:51;100620.47;;;4.67;76.11
52855;BME280;38719;51.418;7.286;2023-01-27T07:08:19;100624.00;;;4.68;75.90
52855;BME280;38719;51.418;7.286;2023-01-27T07:10:47;100630.16;;;4.67;76.31
52855;BME280;38719;51.418;7.286;2023-01-27T07:13:15;100634.41;;;4.79;76.55
52855;BME280;38719;51.418;7.286;2023-01-27T07:15:43;100637.97;;;4.78;76.07
52855;BME280;38719;51.418;7.286;2023-01-27T07:18:11;100627.47;;;4.73;76.13
52855;BME280;38719;51.418;7.286;2023-01-27T07:20:40;100631.72;;;4.83;75.81
52855;BME280;38719;51.418;7.286;2023-01-27T07:23:08;100638.31;;;4.41;76.29
52855;BME280;38719;51.418;7.286;2023-01-27T07:25:36;100647.84;;;4.56;76.92
52855;BME280;38719;51.418;7.286;2023-01-27T07:28:04;100646.94;;;4.58;77.03
52855;BME280;38719;51.418;7.286;2023-01-27T07:30:33;100646.06;;;4.59;76.97
52855;BME280;38719;51.418;7.286;2023-01-27T07:33:03;100650.47;;;4.54;77.11
52855;BME280;38719;51.418;7.286;2023-01-27T07:35:31;100651.38;;;4.51;77.29
52855;BME280;38719;51.418;7.286;2023-01-27T07:37:59;100651.44;;;4.48;77.95
52855;BME280;38719;51.418;7.286;2023-01-27T07:40:27;100658.63;;;4.31;77.92
52855;BME280;38719;51.418;7.286;2023-01-27T07:42:57;100654.09;;;4.44;77.70
52855;BME280;38719;51.418;7.286;2023-01-27T07:45:24;100662.06;;;4.38;77.73
52855;BME280;38719;51.418;7.286;2023-01-27T07:47:58;100655.06;;;4.35;78.43
52855;BME280;38719;51.418;7.286;2023-01-27T07:50:26;100657.59;;;4.47;77.85
52855;BME280;38719;51.418;7.286;2023-01-27T07:52:53;100655.78;;;4.52;77.89
52855;BME280;38719;51.418;7.286;2023-01-27T07:55:21;100657.44;;;4.64;77.35
52855;BME280;38719;51.418;7.286;2023-01-27T07:57:51;100658.34;;;4.63;77.57
52855;BME280;38719;51.418;7.286;2023-01-27T08:00:19;100659.19;;;4.64;78.06
52855;BME280;38719;51.418;7.286;2023-01-27T08:02:49;100660.09;;;4.63;77.59
52855;BME280;38719;51.418;7.286;2023-01-27T08:05:18;100662.78;;;4.58;77.78
52855;BME280;38719;51.418;7.286;2023-01-27T08:07:48;100668.91;;;4.62;77.87
52855;BME280;38719;51.418;7.286;2023-01-27T08:10:16;100652.06;;;4.74;77.54
52855;BME280;38719;51.418;7.286;2023-01-27T08:12:45;100660.06;;;4.66;77.63
52855;BME280;38719;51.418;7.286;2023-01-27T08:15:13;100667.94;;;4.67;77.76
52855;BME280;38719;51.418;7.286;2023-01-27T08:17:51;100662.69;;;4.66;77.56
52855;BME280;38719;51.418;7.286;2023-01-27T08:20:21;100664.50;;;4.62;77.89
52855;BME280;38719;51.418;7.286;2023-01-27T08:22:48;100667.13;;;4.62;78.00
52855;BME280;38719;51.418;7.286;2023-01-27T08:25:16;100667.97;;;4.66;77.81
52855;BME280;38719;51.418;7.286;2023-01-27T08:27:43;100669.78;;;4.61;78.30
52855;BME280;38719;51.418;7.286;2023-01-27T08:30:12;100669.69;;;4.73;78.04
52855;BME280;38719;51.418;7.286;2023-01-27T08:32:40;100666.06;;;4.82;77.79
52855;BME280;38719;51.418;7.286;2023-01-27T08:35:08;100666.06;;;4.82;77.26
52855;BME280;38719;51.418;7.286;2023-01-27T08:37:36;100665.25;;;4.77;78.03
52855;BME280;38719;51.418;7.286;2023-01-27T08:40:06;100669.56;;;4.82;78.32
52855;BME280;38719;51.418;7.286;2023-01-27T08:42:34;100665.22;;;4.78;77.76
52855;BME280;38719;51.418;7.286;2023-01-27T08:45:02;100676.66;;;4.80;77.89
52855;BME280;38719;51.418;7.286;2023-01-27T08:47:29;100668.63;;;4.90;78.02
52855;BME280;38719;51.418;7.286;2023-01-27T08:49:57;100673.81;;;4.99;77.34
52855;BME280;38719;51.418;7.286;2023-01-27T08:52:25;100682.50;;;5.07;77.15
52855;BME280;38719;51.418;7.286;2023-01-27T08:54:54;100677.31;;;5.03;76.90
52855;BME280;38719;51.418;7.286;2023-01-27T08:57:21;100689.84;;;4.77;77.54
52855;BME280;38719;51.418;7.286;2023-01-27T08:59:50;100686.28;;;4.83;77.75
52855;BME280;38719;51.418;7.286;2023-01-27T09:02:17;100682.75;;;4.86;77.89
52855;BME280;38719;51.418;7.286;2023-01-27T09:04:47;100678.31;;;4.89;77.89
52855;BME280;38719;51.418;7.286;2023-01-27T09:07:15;100690.59;;;4.93;77.52
52855;BME280;38719;51.418;7.286;2023-01-27T09:09:45;100695.81;;;4.98;77.42
52855;BME280;38719;51.418;7.286;2023-01-27T09:12:14;100694.94;;;4.99;77.69
52855;BME280;38719;51.418;7.286;2023-01-27T09:14:41;100694.09;;;4.92;77.39
52855;BME280;38719;51.418;7.286;2023-01-27T09:17:09;100701.19;;;4.89;77.35
52855;BME280;38719;51.418;7.286;2023-01-27T09:19:37;100706.38;;;4.98;77.33
52855;BME280;38719;51.418;7.286;2023-01-27T09:22:04;100701.94;;;5.02;77.25
52855;BME280;38719;51.418;7.286;2023-01-27T09:24:32;100713.31;;;5.08;77.46
52855;BME280;38719;51.418;7.286;2023-01-27T09:26:59;100716.03;;;5.00;77.32
52855;BME280;38719;51.418;7.286;2023-01-27T09:29:28;100719.59;;;4.95;78.21
52855;BME280;38719;51.418;7.286;2023-01-27T09:31:56;100720.38;;;5.05;77.47
52855;BME280;38719;51.418;7.286;2023-01-27T09:34:24;100728.31;;;5.03;77.57
52855;BME280;38719;51.418;7.286;2023-01-27T09:36:54;100722.09;;;5.10;77.27
52855;BME280;38719;51.418;7.286;2023-01-27T09:39:23;100717.81;;;4.97;77.15
52855;BME280;38719;51.418;7.286;2023-01-27T09:42:01;100725.88;;;4.83;77.90
52855;BME280;38719;51.418;7.286;2023-01-27T09:44:54;100729.38;;;4.83;78.61
52855;BME280;38719;51.418;7.286;2023-01-27T09:47:45;100744.38;;;4.78;78.07
52855;BME280;38719;51.418;7.286;2023-01-27T09:50:38;100735.53;;;4.82;78.59
52855;BME280;38719;51.418;7.286;2023-01-27T09:53:31;100731.97;;;4.90;78.31
52855;BME280;38719;51.418;7.286;2023-01-27T09:56:07;100742.41;;;5.05;77.82
52855;BME280;38719;51.418;7.286;2023-01-27T09:58:55;100745.00;;;5.08;77.63
52855;BME280;38719;51.418;7.286;2023-01-27T10:01:36;100740.72;;;4.96;77.76
52855;BME280;38719;51.418;7.286;2023-01-27T10:04:21;100738.91;;;5.02;77.97
52855;BME280;38719;51.418;7.286;2023-01-27T10:07:05;100750.22;;;5.14;77.72
52855;BME280;38719;51.418;7.286;2023-01-27T10:09:59;100745.97;;;4.98;77.74
52855;BME280;38719;51.418;7.286;2023-01-27T10:12:36;100736.34;;;4.94;78.42
52855;BME280;38719;51.418;7.286;2023-01-27T10:15:16;100745.16;;;4.90;78.24
52855;BME280;38719;51.418;7.286;2023-01-27T10:17:55;100745.16;;;4.90;78.66
52855;BME280;38719;51.418;7.286;2023-01-27T10:20:32;100741.47;;;5.09;78.03
52855;BME280;38719;51.418;7.286;2023-01-27T10:23:10;100743.25;;;5.06;77.75
52855;BME280;38719;51.418;7.286;2023-01-27T10:25:49;100737.19;;;4.99;77.59
52855;BME280;38719;51.418;7.286;2023-01-27T10:28:21;100748.63;;;4.95;78.43
52855;BME280;38719;51.418;7.286;2023-01-27T10:30:54;100754.00;;;4.87;78.67
52855;BME280;38719;51.418;7.286;2023-01-27T10:33:35;100738.09;;;4.96;78.29
52855;BME280;38719;51.418;7.286;2023-01-27T10:36:08;100737.97;;;5.09;78.11
52855;BME280;38719;51.418;7.286;2023-01-27T10:38:40;100746.78;;;5.06;77.90
52855;BME280;38719;51.418;7.286;2023-01-27T10:41:20;100738.81;;;5.09;78.21
52855;BME280;38719;51.418;7.286;2023-01-27T10:44:03;100743.28;;;5.01;78.18
52855;BME280;38719;51.418;7.286;2023-01-27T10:46:39;100737.19;;;4.96;78.12
52855;BME280;38719;51.418;7.286;2023-01-27T10:49:17;100735.50;;;4.89;78.67
52855;BME280;38719;51.418;7.286;2023-01-27T10:51:52;100741.63;;;4.94;78.39
52855;BME280;38719;51.418;7.286;2023-01-27T10:54:27;100740.66;;;5.03;78.64
52855;BME280;38719;51.418;7.286;2023-01-27T10:57:01;100742.25;;;5.16;78.20
52855;BME280;38719;51.418;7.286;2023-01-27T10:59:37;100744.91;;;5.18;77.97
52855;BME280;38719;51.418;7.286;2023-01-27T11:02:33;100744.09;;;5.09;78.61
52855;BME280;38719;51.418;7.286;2023-01-27T11:05:07;100738.91;;;5.02;78.62
52855;BME280;38719;51.418;7.286;2023-01-27T11:07:42;100731.84;;;5.02;78.81
52855;BME280;38719;51.418;7.286;2023-01-27T11:10:16;100734.50;;;5.00;79.44
52855;BME280;38719;51.418;7.286;2023-01-27T11:12:46;100722.31;;;4.87;79.50
52855;BME280;38719;51.418;7.286;2023-01-27T11:15:19;100734.56;;;4.96;79.26
52855;BME280;38719;51.418;7.286;2023-01-27T11:17:52;100734.47;;;5.04;79.10
52855;BME280;38719;51.418;7.286;2023-01-27T11:20:28;100726.56;;;5.05;78.95
52855;BME280;38719;51.418;7.286;2023-01-27T11:22:59;100716.88;;;5.04;79.33
52855;BME280;38719;51.418;7.286;2023-01-27T11:25:40;100719.47;;;5.10;78.91
52855;BME280;38719;51.418;7.286;2023-01-27T11:28:21;100720.25;;;5.19;78.66
52855;BME280;38719;51.418;7.286;2023-01-27T11:31:01;100721.16;;;5.14;78.53
52855;BME280;38719;51.418;7.286;2023-01-27T11:33:41;100720.22;;;5.22;78.88
52855;BME280;38719;51.418;7.286;2023-01-27T11:36:16;100723.66;;;5.30;78.59
52855;BME280;38719;51.418;7.286;2023-01-27T11:38:43;100722.63;;;5.43;78.75
52855;BME280;38719;51.418;7.286;2023-01-27T11:41:11;100722.72;;;5.37;78.11
52855;BME280;38719;51.418;7.286;2023-01-27T11:43:39;100713.03;;;5.36;77.66
52855;BME280;38719;51.418;7.286;2023-01-27T11:46:17;100722.03;;;5.16;77.93
52855;BME280;38719;51.418;7.286;2023-01-27T11:48:48;100716.66;;;5.24;78.28
52855;BME280;38719;51.418;7.286;2023-01-27T11:51:19;100719.25;;;5.29;77.70
52855;BME280;38719;51.418;7.286;2023-01-27T11:53:51;100718.34;;;5.35;77.64
52855;BME280;38719;51.418;7.286;2023-01-27T11:56:22;100716.47;;;5.41;77.63
52855;BME280;38719;51.418;7.286;2023-01-27T11:58:56;100718.13;;;5.52;77.38
52855;BME280;38719;51.418;7.286;2023-01-27T12:01:37;100710.34;;;5.39;77.31
52855;BME280;38719;51.418;7.286;2023-01-27T12:04:11;100705.91;;;5.41;77.35
52855;BME280;38719;51.418;7.286;2023-01-27T12:06:45;100701.50;;;5.43;77.04
52855;BME280;38719;51.418;7.286;2023-01-27T12:09:32;100704.97;;;5.45;76.96
52855;BME280;38719;51.418;7.286;2023-01-27T12:12:18;100696.28;;;5.37;77.50
52855;BME280;38719;51.418;7.286;2023-01-27T12:14:47;100700.63;;;5.41;76.84
52855;BME280;38719;51.418;7.286;2023-01-27T12:17:22;100695.47;;;5.30;76.84
52855;BME280;38719;51.418;7.286;2023-01-27T12:19:53;100694.53;;;5.36;76.55
52855;BME280;38719;51.418;7.286;2023-01-27T12:22:26;100694.56;;;5.33;76.78
52855;BME280;38719;51.418;7.286;2023-01-27T12:24:59;100699.69;;;5.45;76.38
52855;BME280;38719;51.418;7.286;2023-01-27T12:27:29;100689.91;;;5.54;75.98
52855;BME280;38719;51.418;7.286;2023-01-27T12:29:59;100687.19;;;5.60;76.12
52855;BME280;38719;51.418;7.286;2023-01-27T12:32:36;100689.13;;;5.45;75.88
52855;BME280;38719;51.418;7.286;2023-01-27T12:35:17;100690.00;;;5.47;76.17
52855;BME280;38719;51.418;7.286;2023-01-27T12:37:48;100685.53;;;5.53;75.92
52855;BME280;38719;51.418;7.286;2023-01-27T12:40:22;100685.53;;;5.53;75.46
52855;BME280;38719;51.418;7.286;2023-01-27T12:43:06;100682.94;;;5.49;75.65
52855;BME280;38719;51.418;7.286;2023-01-27T12:45:36;100689.94;;;5.51;75.07
52855;BME280;38719;51.418;7.286;2023-01-27T12:48:16;100683.81;;;5.48;75.07
52855;BME280;38719;51.418;7.286;2023-01-27T12:50:56;100689.31;;;5.30;75.41
52855;BME280;38719;51.418;7.286;2023-01-27T12:53:31;100682.28;;;5.29;75.26
52855;BME280;38719;51.418;7.286;2023-01-27T12:56:03;100687.53;;;5.32;74.95
52855;BME280;38719;51.418;7.286;2023-01-27T12:58:34;100682.16;;;5.38;75.41
52855;BME280;38719;51.418;7.286;2023-01-27T13:01:04;100690.94;;;5.43;74.69
52855;BME280;38719;51.418;7.286;2023-01-27T13:03:38;100691.75;;;5.48;74.35
52855;BME280;38719;51.418;7.286;2023-01-27T13:06:08;100690.13;;;5.37;74.69
52855;BME280;38719;51.418;7.286;2023-01-27T13:08:42;100682.06;;;5.47;74.34
52855;BME280;38719;51.418;7.286;2023-01-27T13:11:10;100684.56;;;5.57;74.03
52855;BME280;38719;51.418;7.286;2023-01-27T13:13:46;100682.75;;;5.63;74.10
52855;BME280;38719;51.418;7.286;2023-01-27T13:16:16;100688.81;;;5.70;73.71
52855;BME280;38719;51.418;7.286;2023-01-27T13:18:52;100692.47;;;5.60;74.05
52855;BME280;38719;51.418;7.286;2023-01-27T13:21:22;100689.88;;;5.58;73.27